North Arm Victor — CFK9387 — position and weather

sailwx.info

Track history (hours):
 
Tides and Currents Weather Stations Pressure Air Temp Water Temp Dewpoint Dewpoint Depression Visibility Wind Speed Wind Dir Waves Ship Positions

North Arm Victor

Last reported at 2018-Apr-22 08:30 UTC. Time now 2018-Apr-22 08:37 UTC.
Position N 51°08' W 127°48'.

Length 18 m.

Type: Tug. MMSI: 316003008.

Date/timePositionNaut miles runAvg speedWind from/ knotsBaromVisibWave heightAir tempDewpointWater temp
2018-Apr-22 08:30N 51°08' W 127°48'4 7.5
2018-Apr-22 08:00N 51°05' W 127°44'4 7.5
2018-Apr-22 07:30N 51°03' W 127°39'4 7.5
2018-Apr-22 07:00N 51°00' W 127°35'4 7.6
2018-Apr-22 06:30N 50°58' W 127°30'4 8.1
2018-Apr-22 06:00N 50°55' W 127°25'4 7.8
2018-Apr-22 05:30N 50°53' W 127°21'4 7.9
2018-Apr-22 05:00N 50°51' W 127°15'4 7.8
2018-Apr-22 04:30N 50°49' W 127°10'4 7.8
2018-Apr-22 03:57N 50°46' W 127°04'14 6.9
2018-Apr-22 01:58N 50°38' W 126°47'5 6.4
2018-Apr-22 01:14N 50°35' W 126°42'1 3.0
2018-Apr-22 00:55N 50°34' W 126°41'2 5.3
2018-Apr-22 00:27N 50°32' W 126°39'3 6.9
2018-Apr-21 23:59N 50°31' W 126°34'40 8.0
2018-Apr-21 18:57N 50°21' W 125°32'4 9.2
2018-Apr-21 18:30N 50°20' W 125°26'4 8.3
2018-Apr-21 18:00N 50°16' W 125°24'4 8.2
2018-Apr-21 17:30N 50°12' W 125°22'4 7.5
2018-Apr-21 17:00N 50°09' W 125°21'4 7.0
2018-Apr-21 16:30N 50°06' W 125°18'3 5.4
2018-Apr-21 16:00N 50°04' W 125°15'3 5.3
2018-Apr-21 15:30N 50°02' W 125°13'2 4.0
2018-Apr-21 15:00N 49°60' W 125°12'3 5.2
2018-Apr-21 14:29N 49°59' W 125°08'3 6.0
2018-Apr-21 14:00N 49°59' W 125°04'3 6.2
2018-Apr-21 13:30N 49°60' W 124°59'3 5.5
2018-Apr-21 13:00N 50°00' W 124°55'3 5.7
2018-Apr-21 12:30N 49°59' W 124°51'3 6.8
2018-Apr-21 12:00N 49°58' W 124°47'3 6.6
2018-Apr-21 11:29N 49°56' W 124°42'3 7.2
2018-Apr-21 11:00N 49°53' W 124°38'3 6.9
2018-Apr-21 10:30N 49°51' W 124°35'3 6.8
2018-Apr-21 10:00N 49°48' W 124°33'3 6.6
2018-Apr-21 09:30N 49°46' W 124°28'3 6.8
2018-Apr-21 09:00N 49°44' W 124°24'3 6.5
2018-Apr-21 08:29N 49°43' W 124°19'3 6.7
2018-Apr-21 08:00N 49°40' W 124°16'3 6.5
2018-Apr-21 07:28N 49°38' W 124°13'4 6.4
2018-Apr-21 06:47N 49°34' W 124°08'23 7.3
2018-Apr-21 03:39N 49°22' W 123°38'1 7.8
2018-Apr-21 03:30N 49°22' W 123°37'4 7.5
2018-Apr-21 03:00N 49°21' W 123°31'4 7.5
2018-Apr-21 02:29N 49°20' W 123°25'4 7.4
2018-Apr-21 02:00N 49°19' W 123°20'3 6.9
2018-Apr-21 01:30N 49°19' W 123°15'3 5.8
2018-Apr-21 01:00N 49°19' W 123°10'2 4.6
2018-Apr-21 00:30N 49°18' W 123°07'2 3.2
2018-Apr-21 00:00N 49°17' W 123°05'0 0.6
2018-Apr-20 23:30N 49°17' W 123°05'1 2.3
2018-Apr-20 23:00N 49°18' W 123°04'2 4.5
2018-Apr-20 22:28N 49°18' W 122°60'1 2.8
2018-Apr-20 22:00N 49°18' W 122°58'1 1.5
2018-Apr-20 21:28N 49°18' W 122°57'2 3.9
2018-Apr-20 21:00N 49°18' W 122°54'0 0.2
2018-Apr-20 20:30N 49°17' W 122°54'0 0.0
2018-Apr-20 20:00N 49°17' W 122°54'0 0.0
2018-Apr-20 19:31N 49°17' W 122°54'0 0.0
2018-Apr-20 19:00N 49°17' W 122°54'0 0.3
2018-Apr-20 18:30N 49°18' W 122°54'0 0.0
2018-Apr-20 18:00N 49°18' W 122°54'0 0.0
2018-Apr-20 17:30N 49°18' W 122°54'0 0.0
2018-Apr-20 17:00N 49°18' W 122°54'0 0.0
2018-Apr-20 16:30N 49°18' W 122°54'0 0.0
2018-Apr-20 16:00N 49°18' W 122°54'0 0.0
2018-Apr-20 15:30N 49°18' W 122°54'0 0.0
2018-Apr-20 15:00N 49°18' W 122°54'0 0.3
2018-Apr-20 14:30N 49°17' W 122°54'1 1.2
2018-Apr-20 14:00N 49°17' W 122°55'2 3.0
2018-Apr-20 13:28N 49°18' W 122°57'1 1.8
2018-Apr-20 13:00N 49°18' W 122°58'3 5.1
2018-Apr-20 12:30N 49°18' W 123°02'2 4.9
2018-Apr-20 12:00N 49°18' W 123°06'2 4.6
2018-Apr-20 11:30N 49°19' W 123°09'2 3.8
2018-Apr-20 11:00N 49°19' W 123°12'1 2.8
2018-Apr-20 10:30N 49°19' W 123°14'1 2.8
2018-Apr-20 10:00N 49°18' W 123°16'1 2.6
2018-Apr-20 09:31N 49°17' W 123°18'2 3.2
2018-Apr-20 09:00N 49°16' W 123°17'3 7.1
2018-Apr-20 08:30N 49°13' W 123°13'4 7.3
2018-Apr-20 08:00N 49°12' W 123°07'1 2.0
2018-Apr-20 07:30N 49°12' W 123°06'2 3.1
2018-Apr-20 07:00N 49°12' W 123°08'0 0.0
2018-Apr-20 06:30N 49°12' W 123°08'0 0.0
2018-Apr-20 06:00N 49°12' W 123°08'2 3.4
2018-Apr-20 05:29N 49°12' W 123°06'2 3.2
2018-Apr-20 05:00N 49°12' W 123°03'0 0.0
2018-Apr-20 04:30N 49°12' W 123°03'0 0.0
2018-Apr-20 04:00N 49°12' W 123°03'0 0.0
2018-Apr-18 19:40N 49°12' W 123°03'1 3.9
2018-Apr-18 19:30N 49°12' W 123°04'1 1.5
2018-Apr-18 19:00N 49°12' W 123°05'0 0.2
2018-Apr-18 18:29N 49°12' W 123°06'1 1.2
2018-Apr-18 18:00N 49°12' W 123°05'1 2.3
2018-Apr-18 17:30N 49°12' W 123°03'0 0.0
2018-Apr-17 17:00N 49°12' W 123°03'0 0.0
2018-Apr-17 16:30N 49°12' W 123°03'0 0.0
2018-Apr-17 16:00N 49°12' W 123°03'0 0.0
2018-Apr-17 15:30N 49°12' W 123°03'1 1.3
2018-Apr-17 15:00N 49°12' W 123°04'4 7.5
2018-Apr-17 14:30N 49°13' W 123°10'4 8.5
2018-Apr-17 14:00N 49°15' W 123°16'510.3
2018-Apr-17 13:30N 49°18' W 123°22'510.7
2018-Apr-17 13:00N 49°20' W 123°30'510.0
2018-Apr-17 12:29N 49°22' W 123°37'19 9.6
2018-Apr-17 10:29N 49°33' W 124°01'510.9
2018-Apr-17 09:59N 49°36' W 124°08'611.2
2018-Apr-17 09:25N 49°40' W 124°15'410.9
2018-Apr-17 09:00N 49°43' W 124°21'510.5
2018-Apr-17 08:30N 49°46' W 124°28'510.7
2018-Apr-17 08:00N 49°48' W 124°35'510.4
2018-Apr-17 07:31N 49°50' W 124°43'510.7
2018-Apr-17 07:00N 49°52' W 124°50'510.6
2018-Apr-17 06:30N 49°55' W 124°57'510.6
2018-Apr-17 05:59N 49°57' W 125°05'5 9.4
2018-Apr-17 05:29N 49°59' W 125°11'3 6.7
2018-Apr-17 05:00N 50°02' W 125°14'3 5.1
2018-Apr-17 04:31N 50°04' W 125°16'4 8.2
2018-Apr-17 04:00N 50°07' W 125°21'1 2.6
2018-Apr-17 03:30N 50°07' W 125°23'0 0.1
2018-Apr-17 03:01N 50°07' W 125°23'2 3.0
2018-Apr-17 02:30N 50°08' W 125°21'4 7.6
2018-Apr-17 02:00N 50°12' W 125°22'4 7.3
2018-Apr-17 01:29N 50°16' W 125°24'32 8.5
2018-Apr-16 21:44N 50°28' W 126°09'3 8.7
2018-Apr-16 21:27N 50°29' W 126°13'4 8.2
2018-Apr-16 20:58N 50°29' W 126°19'5 8.3
2018-Apr-16 20:23N 50°30' W 126°27'3 8.0
2018-Apr-16 19:58N 50°30' W 126°32'11 7.2
2018-Apr-16 18:27N 50°37' W 126°45'4 7.0
2018-Apr-16 17:54N 50°39' W 126°50'4 8.5
2018-Apr-16 17:23N 50°42' W 126°55'5 8.0
2018-Apr-16 16:47N 50°45' W 127°01'2 7.6
2018-Apr-16 16:28N 50°47' W 127°04'3 7.2
2018-Apr-16 16:00N 50°49' W 127°08'4 7.2
2018-Apr-16 15:30N 50°50' W 127°13'4 6.9
2018-Apr-16 15:00N 50°52' W 127°18'3 6.6
2018-Apr-16 14:30N 50°54' W 127°22'3 5.7
2018-Apr-16 14:00N 50°56' W 127°26'3 5.8
2018-Apr-16 13:30N 50°57' W 127°30'3 5.9
2018-Apr-16 13:01N 50°59' W 127°33'3 6.0
2018-Apr-16 12:30N 51°02' W 127°36'3 5.8
2018-Apr-16 12:00N 51°03' W 127°40'3 6.1
2018-Apr-16 11:30N 51°05' W 127°44'3 6.2
2018-Apr-16 11:00N 51°07' W 127°48'3 6.4
2018-Apr-16 10:30N 51°10' W 127°51'4 7.2
2018-Apr-16 10:00N 51°13' W 127°52'4 7.2
2018-Apr-16 09:26N 51°17' W 127°53'3 7.2
2018-Apr-16 09:00N 51°20' W 127°53'4 7.1
2018-Apr-16 08:29N 51°24' W 127°52'4 7.4
2018-Apr-16 08:00N 51°28' W 127°51'4 7.9
2018-Apr-16 07:30N 51°32' W 127°52'4 8.0
2018-Apr-16 07:00N 51°36' W 127°53'4 7.7
2018-Apr-16 06:30N 51°39' W 127°54'4 8.1
2018-Apr-16 06:00N 51°43' W 127°55'4 8.0
2018-Apr-16 05:30N 51°47' W 127°55'4 7.9
2018-Apr-16 05:00N 51°51' W 127°55'4 7.3
2018-Apr-16 04:30N 51°55' W 127°53'3 6.7
2018-Apr-16 04:00N 51°57' W 127°48'3 6.4
2018-Apr-16 03:30N 51°58' W 127°43'4 8.0
2018-Apr-16 03:00N 52°01' W 127°40'4 8.6
2018-Apr-16 02:30N 52°05' W 127°38'10 1.1
2018-Apr-15 17:16N 52°12' W 127°27'3 7.9
2018-Apr-15 16:51N 52°10' W 127°31'5 7.6
2018-Apr-15 16:13N 52°08' W 127°37'2 7.7
2018-Apr-15 16:00N 52°06' W 127°38'4 7.5
2018-Apr-15 15:29N 52°02' W 127°40'4 7.5
2018-Apr-15 15:00N 51°59' W 127°42'4 7.5
2018-Apr-15 14:30N 51°57' W 127°47'4 7.8
2018-Apr-15 14:00N 51°55' W 127°52'4 7.1
2018-Apr-15 13:30N 51°52' W 127°55'4 7.6
2018-Apr-15 13:00N 51°48' W 127°55'4 7.8
2018-Apr-15 12:30N 51°44' W 127°55'4 8.0
2018-Apr-15 12:00N 51°40' W 127°54'4 7.9
2018-Apr-15 11:30N 51°36' W 127°53'4 8.1
2018-Apr-15 11:00N 51°32' W 127°50'4 8.2
2018-Apr-15 10:30N 51°29' W 127°47'4 7.8
2018-Apr-15 10:00N 51°26' W 127°43'4 8.3
2018-Apr-15 09:30N 51°28' W 127°36'2 4.5
2018-Apr-15 09:00N 51°28' W 127°33'1 1.3
2018-Apr-15 08:30N 51°29' W 127°32'0 0.0
2018-Apr-15 08:00N 51°29' W 127°32'0 0.0
2018-Apr-15 07:30N 51°29' W 127°32'0 0.0
2018-Apr-15 07:00N 51°29' W 127°32'0 0.0
2018-Apr-15 06:29N 51°29' W 127°32'0 0.0
2018-Apr-15 06:00N 51°29' W 127°32'0 0.0
2018-Apr-15 05:30N 51°29' W 127°32'0 0.0
2018-Apr-15 04:59N 51°29' W 127°32'0 0.0
2018-Apr-15 04:30N 51°29' W 127°32'0 0.0
2018-Apr-15 04:00N 51°29' W 127°32'0 0.0
2018-Apr-15 03:30N 51°29' W 127°32'1 2.2
2018-Apr-15 03:00N 51°28' W 127°34'1 2.8
2018-Apr-15 02:30N 51°30' W 127°35'3 5.2
2018-Apr-15 02:00N 51°32' W 127°33'3 5.3
2018-Apr-15 01:30N 51°35' W 127°32'3 4.9
2018-Apr-15 00:58N 51°37' W 127°31'3 5.4
2018-Apr-15 00:30N 51°39' W 127°27'3 6.5
2018-Apr-15 00:00N 51°40' W 127°23'4 0.9
2018-Apr-14 19:25N 51°41' W 127°16'0 1.0
2018-Apr-14 18:59N 51°41' W 127°16'0 0.0
2018-Apr-14 18:30N 51°41' W 127°16'0 0.0
2018-Apr-14 18:00N 51°41' W 127°16'0 0.2
2018-Apr-14 17:30N 51°40' W 127°16'1 0.3
2018-Apr-14 13:26N 51°41' W 127°18'1 3.4
2018-Apr-14 13:00N 51°40' W 127°20'3 5.6
2018-Apr-14 12:30N 51°39' W 127°24'4 7.1
2018-Apr-14 12:00N 51°38' W 127°30'4 7.2
2018-Apr-14 11:30N 51°35' W 127°33'4 6.0
2018-Apr-14 10:55N 51°33' W 127°37'3 5.7
2018-Apr-14 10:27N 51°31' W 127°40'2 4.1
2018-Apr-14 10:00N 51°31' W 127°43'2 3.8
2018-Apr-14 09:30N 51°31' W 127°46'3 5.4
2018-Apr-14 09:00N 51°32' W 127°50'3 6.4
2018-Apr-14 08:30N 51°35' W 127°52'3 6.6
2018-Apr-14 08:00N 51°38' W 127°53'3 6.5
2018-Apr-14 07:30N 51°41' W 127°54'3 6.8
2018-Apr-14 07:00N 51°44' W 127°55'3 6.9
2018-Apr-14 06:30N 51°48' W 127°55'3 6.7
2018-Apr-14 06:00N 51°51' W 127°55'3 6.4
2018-Apr-14 05:30N 51°54' W 127°54'3 6.2
2018-Apr-14 05:00N 51°56' W 127°50'3 5.3
2018-Apr-14 04:30N 51°57' W 127°46'2 4.7
2018-Apr-14 04:00N 51°58' W 127°42'1 2.2
2018-Apr-14 03:28N 51°58' W 127°40'0 0.0
2018-Apr-14 02:30N 51°58' W 127°40'0 0.0
2018-Apr-14 01:56N 51°58' W 127°40'1 2.2
2018-Apr-14 01:30N 51°58' W 127°41'4 7.8
2018-Apr-14 00:59N 52°02' W 127°40'4 7.5
2018-Apr-14 00:29N 52°06' W 127°38'10 0.9
2018-Apr-13 13:34N 52°16' W 127°37'0 0.0
2018-Apr-12 22:40N 52°16' W 127°37'3 6.4
2018-Apr-12 22:13N 52°16' W 127°42'2 7.3
2018-Apr-12 22:00N 52°16' W 127°44'4 7.2
2018-Apr-12 21:30N 52°13' W 127°49'5 7.5
2018-Apr-12 20:50N 52°09' W 127°52'3 7.9
2018-Apr-12 20:30N 52°06' W 127°54'3 6.3
2018-Apr-12 20:00N 52°04' W 127°58'3 6.4
2018-Apr-12 19:30N 52°04' W 128°03'3 6.4
2018-Apr-12 19:00N 52°06' W 128°08'3 1.9
2018-Apr-12 17:12N 52°10' W 128°08'0 0.7
2018-Apr-12 16:44N 52°10' W 128°08'0 0.0
2018-Apr-12 16:23N 52°10' W 128°08'0 0.0
2018-Apr-12 15:59N 52°10' W 128°08'0 0.0
2018-Apr-12 15:30N 52°10' W 128°08'0 0.0
2018-Apr-12 14:50N 52°10' W 128°08'0 0.0
2018-Apr-12 14:30N 52°10' W 128°08'0 0.0
2018-Apr-12 14:00N 52°10' W 128°08'0 0.8
2018-Apr-12 13:30N 52°10' W 128°08'2 4.1
2018-Apr-12 12:56N 52°12' W 128°08'3 6.8
2018-Apr-12 12:30N 52°14' W 128°12'2 4.9
2018-Apr-12 12:00N 52°15' W 128°16'3 6.2
2018-Apr-12 11:30N 52°15' W 128°21'4 6.1
2018-Apr-12 10:54N 52°16' W 128°26'3 6.6
2018-Apr-12 10:28N 52°18' W 128°30'4 7.1
2018-Apr-12 09:58N 52°21' W 128°31'4 7.6
2018-Apr-12 09:29N 52°25' W 128°30'  
Track history (hours):
 
Tides and Currents Weather Stations Pressure Air Temp Water Temp Dewpoint Dewpoint Depression Visibility Wind Speed Wind Dir Waves Ship Positions

North Arm Victor

Last reported at 2018-Apr-22 08:30 UTC. Time now 2018-Apr-22 08:37 UTC.
Position N 51°08' W 127°48'.

Length 18 m.

Type: Tug. MMSI: 316003008.

Date/timePositionNaut miles runAvg speedWind from/ knotsBaromVisibWave heightAir tempDewpointWater temp
2018-Apr-22 08:30N 51°08' W 127°48'4 7.5
2018-Apr-22 08:00N 51°05' W 127°44'4 7.5
2018-Apr-22 07:30N 51°03' W 127°39'4 7.5
2018-Apr-22 07:00N 51°00' W 127°35'4 7.6
2018-Apr-22 06:30N 50°58' W 127°30'4 8.1
2018-Apr-22 06:00N 50°55' W 127°25'4 7.8
2018-Apr-22 05:30N 50°53' W 127°21'4 7.9
2018-Apr-22 05:00N 50°51' W 127°15'4 7.8
2018-Apr-22 04:30N 50°49' W 127°10'4 7.8
2018-Apr-22 03:57N 50°46' W 127°04'14 6.9
2018-Apr-22 01:58N 50°38' W 126°47'5 6.4
2018-Apr-22 01:14N 50°35' W 126°42'1 3.0
2018-Apr-22 00:55N 50°34' W 126°41'2 5.3
2018-Apr-22 00:27N 50°32' W 126°39'3 6.9
2018-Apr-21 23:59N 50°31' W 126°34'40 8.0
2018-Apr-21 18:57N 50°21' W 125°32'4 9.2
2018-Apr-21 18:30N 50°20' W 125°26'4 8.3
2018-Apr-21 18:00N 50°16' W 125°24'4 8.2
2018-Apr-21 17:30N 50°12' W 125°22'4 7.5
2018-Apr-21 17:00N 50°09' W 125°21'4 7.0
2018-Apr-21 16:30N 50°06' W 125°18'3 5.4
2018-Apr-21 16:00N 50°04' W 125°15'3 5.3
2018-Apr-21 15:30N 50°02' W 125°13'2 4.0
2018-Apr-21 15:00N 49°60' W 125°12'3 5.2
2018-Apr-21 14:29N 49°59' W 125°08'3 6.0
2018-Apr-21 14:00N 49°59' W 125°04'3 6.2
2018-Apr-21 13:30N 49°60' W 124°59'3 5.5
2018-Apr-21 13:00N 50°00' W 124°55'3 5.7
2018-Apr-21 12:30N 49°59' W 124°51'3 6.8
2018-Apr-21 12:00N 49°58' W 124°47'3 6.6
2018-Apr-21 11:29N 49°56' W 124°42'3 7.2
2018-Apr-21 11:00N 49°53' W 124°38'3 6.9
2018-Apr-21 10:30N 49°51' W 124°35'3 6.8
2018-Apr-21 10:00N 49°48' W 124°33'3 6.6
2018-Apr-21 09:30N 49°46' W 124°28'3 6.8
2018-Apr-21 09:00N 49°44' W 124°24'3 6.5
2018-Apr-21 08:29N 49°43' W 124°19'3 6.7
2018-Apr-21 08:00N 49°40' W 124°16'3 6.5
2018-Apr-21 07:28N 49°38' W 124°13'4 6.4
2018-Apr-21 06:47N 49°34' W 124°08'23 7.3
2018-Apr-21 03:39N 49°22' W 123°38'1 7.8
2018-Apr-21 03:30N 49°22' W 123°37'4 7.5
2018-Apr-21 03:00N 49°21' W 123°31'4 7.5
2018-Apr-21 02:29N 49°20' W 123°25'4 7.4
2018-Apr-21 02:00N 49°19' W 123°20'3 6.9
2018-Apr-21 01:30N 49°19' W 123°15'3 5.8
2018-Apr-21 01:00N 49°19' W 123°10'2 4.6
2018-Apr-21 00:30N 49°18' W 123°07'2 3.2
2018-Apr-21 00:00N 49°17' W 123°05'0 0.6
2018-Apr-20 23:30N 49°17' W 123°05'1 2.3
2018-Apr-20 23:00N 49°18' W 123°04'2 4.5
2018-Apr-20 22:28N 49°18' W 122°60'1 2.8
2018-Apr-20 22:00N 49°18' W 122°58'1 1.5
2018-Apr-20 21:28N 49°18' W 122°57'2 3.9
2018-Apr-20 21:00N 49°18' W 122°54'0 0.2
2018-Apr-20 20:30N 49°17' W 122°54'0 0.0
2018-Apr-20 20:00N 49°17' W 122°54'0 0.0
2018-Apr-20 19:31N 49°17' W 122°54'0 0.0
2018-Apr-20 19:00N 49°17' W 122°54'0 0.3
2018-Apr-20 18:30N 49°18' W 122°54'0 0.0
2018-Apr-20 18:00N 49°18' W 122°54'0 0.0
2018-Apr-20 17:30N 49°18' W 122°54'0 0.0
2018-Apr-20 17:00N 49°18' W 122°54'0 0.0
2018-Apr-20 16:30N 49°18' W 122°54'0 0.0
2018-Apr-20 16:00N 49°18' W 122°54'0 0.0
2018-Apr-20 15:30N 49°18' W 122°54'0 0.0
2018-Apr-20 15:00N 49°18' W 122°54'0 0.3
2018-Apr-20 14:30N 49°17' W 122°54'1 1.2
2018-Apr-20 14:00N 49°17' W 122°55'2 3.0
2018-Apr-20 13:28N 49°18' W 122°57'1 1.8
2018-Apr-20 13:00N 49°18' W 122°58'3 5.1
2018-Apr-20 12:30N 49°18' W 123°02'2 4.9
2018-Apr-20 12:00N 49°18' W 123°06'2 4.6
2018-Apr-20 11:30N 49°19' W 123°09'2 3.8
2018-Apr-20 11:00N 49°19' W 123°12'1 2.8
2018-Apr-20 10:30N 49°19' W 123°14'1 2.8
2018-Apr-20 10:00N 49°18' W 123°16'1 2.6
2018-Apr-20 09:31N 49°17' W 123°18'2 3.2
2018-Apr-20 09:00N 49°16' W 123°17'3 7.1
2018-Apr-20 08:30N 49°13' W 123°13'4 7.3
2018-Apr-20 08:00N 49°12' W 123°07'1 2.0
2018-Apr-20 07:30N 49°12' W 123°06'2 3.1
2018-Apr-20 07:00N 49°12' W 123°08'0 0.0
2018-Apr-20 06:30N 49°12' W 123°08'0 0.0
2018-Apr-20 06:00N 49°12' W 123°08'2 3.4
2018-Apr-20 05:29N 49°12' W 123°06'2 3.2
2018-Apr-20 05:00N 49°12' W 123°03'0 0.0
2018-Apr-20 04:30N 49°12' W 123°03'0 0.0
2018-Apr-20 04:00N 49°12' W 123°03'0 0.0
2018-Apr-18 19:40N 49°12' W 123°03'1 3.9
2018-Apr-18 19:30N 49°12' W 123°04'1 1.5
2018-Apr-18 19:00N 49°12' W 123°05'0 0.2
2018-Apr-18 18:29N 49°12' W 123°06'1 1.2
2018-Apr-18 18:00N 49°12' W 123°05'1 2.3
2018-Apr-18 17:30N 49°12' W 123°03'0 0.0
2018-Apr-17 17:00N 49°12' W 123°03'0 0.0
2018-Apr-17 16:30N 49°12' W 123°03'0 0.0
2018-Apr-17 16:00N 49°12' W 123°03'0 0.0
2018-Apr-17 15:30N 49°12' W 123°03'1 1.3
2018-Apr-17 15:00N 49°12' W 123°04'4 7.5
2018-Apr-17 14:30N 49°13' W 123°10'4 8.5
2018-Apr-17 14:00N 49°15' W 123°16'510.3
2018-Apr-17 13:30N 49°18' W 123°22'510.7
2018-Apr-17 13:00N 49°20' W 123°30'510.0
2018-Apr-17 12:29N 49°22' W 123°37'19 9.6
2018-Apr-17 10:29N 49°33' W 124°01'510.9
2018-Apr-17 09:59N 49°36' W 124°08'611.2
2018-Apr-17 09:25N 49°40' W 124°15'410.9
2018-Apr-17 09:00N 49°43' W 124°21'510.5
2018-Apr-17 08:30N 49°46' W 124°28'510.7
2018-Apr-17 08:00N 49°48' W 124°35'510.4
2018-Apr-17 07:31N 49°50' W 124°43'510.7
2018-Apr-17 07:00N 49°52' W 124°50'510.6
2018-Apr-17 06:30N 49°55' W 124°57'510.6
2018-Apr-17 05:59N 49°57' W 125°05'5 9.4
2018-Apr-17 05:29N 49°59' W 125°11'3 6.7
2018-Apr-17 05:00N 50°02' W 125°14'3 5.1
2018-Apr-17 04:31N 50°04' W 125°16'4 8.2
2018-Apr-17 04:00N 50°07' W 125°21'1 2.6
2018-Apr-17 03:30N 50°07' W 125°23'0 0.1
2018-Apr-17 03:01N 50°07' W 125°23'2 3.0
2018-Apr-17 02:30N 50°08' W 125°21'4 7.6
2018-Apr-17 02:00N 50°12' W 125°22'4 7.3
2018-Apr-17 01:29N 50°16' W 125°24'32 8.5
2018-Apr-16 21:44N 50°28' W 126°09'3 8.7
2018-Apr-16 21:27N 50°29' W 126°13'4 8.2
2018-Apr-16 20:58N 50°29' W 126°19'5 8.3
2018-Apr-16 20:23N 50°30' W 126°27'3 8.0
2018-Apr-16 19:58N 50°30' W 126°32'11 7.2
2018-Apr-16 18:27N 50°37' W 126°45'4 7.0
2018-Apr-16 17:54N 50°39' W 126°50'4 8.5
2018-Apr-16 17:23N 50°42' W 126°55'5 8.0
2018-Apr-16 16:47N 50°45' W 127°01'2 7.6
2018-Apr-16 16:28N 50°47' W 127°04'3 7.2
2018-Apr-16 16:00N 50°49' W 127°08'4 7.2
2018-Apr-16 15:30N 50°50' W 127°13'4 6.9
2018-Apr-16 15:00N 50°52' W 127°18'3 6.6
2018-Apr-16 14:30N 50°54' W 127°22'3 5.7
2018-Apr-16 14:00N 50°56' W 127°26'3 5.8
2018-Apr-16 13:30N 50°57' W 127°30'3 5.9
2018-Apr-16 13:01N 50°59' W 127°33'3 6.0
2018-Apr-16 12:30N 51°02' W 127°36'3 5.8
2018-Apr-16 12:00N 51°03' W 127°40'3 6.1
2018-Apr-16 11:30N 51°05' W 127°44'3 6.2
2018-Apr-16 11:00N 51°07' W 127°48'3 6.4
2018-Apr-16 10:30N 51°10' W 127°51'4 7.2
2018-Apr-16 10:00N 51°13' W 127°52'4 7.2
2018-Apr-16 09:26N 51°17' W 127°53'3 7.2
2018-Apr-16 09:00N 51°20' W 127°53'4 7.1
2018-Apr-16 08:29N 51°24' W 127°52'4 7.4
2018-Apr-16 08:00N 51°28' W 127°51'4 7.9
2018-Apr-16 07:30N 51°32' W 127°52'4 8.0
2018-Apr-16 07:00N 51°36' W 127°53'4 7.7
2018-Apr-16 06:30N 51°39' W 127°54'4 8.1
2018-Apr-16 06:00N 51°43' W 127°55'4 8.0
2018-Apr-16 05:30N 51°47' W 127°55'4 7.9
2018-Apr-16 05:00N 51°51' W 127°55'4 7.3
2018-Apr-16 04:30N 51°55' W 127°53'3 6.7
2018-Apr-16 04:00N 51°57' W 127°48'3 6.4
2018-Apr-16 03:30N 51°58' W 127°43'4 8.0
2018-Apr-16 03:00N 52°01' W 127°40'4 8.6
2018-Apr-16 02:30N 52°05' W 127°38'10 1.1
2018-Apr-15 17:16N 52°12' W 127°27'3 7.9
2018-Apr-15 16:51N 52°10' W 127°31'5 7.6
2018-Apr-15 16:13N 52°08' W 127°37'2 7.7
2018-Apr-15 16:00N 52°06' W 127°38'4 7.5
2018-Apr-15 15:29N 52°02' W 127°40'4 7.5
2018-Apr-15 15:00N 51°59' W 127°42'4 7.5
2018-Apr-15 14:30N 51°57' W 127°47'4 7.8
2018-Apr-15 14:00N 51°55' W 127°52'4 7.1
2018-Apr-15 13:30N 51°52' W 127°55'4 7.6
2018-Apr-15 13:00N 51°48' W 127°55'4 7.8
2018-Apr-15 12:30N 51°44' W 127°55'4 8.0
2018-Apr-15 12:00N 51°40' W 127°54'4 7.9
2018-Apr-15 11:30N 51°36' W 127°53'4 8.1
2018-Apr-15 11:00N 51°32' W 127°50'4 8.2
2018-Apr-15 10:30N 51°29' W 127°47'4 7.8
2018-Apr-15 10:00N 51°26' W 127°43'4 8.3
2018-Apr-15 09:30N 51°28' W 127°36'2 4.5
2018-Apr-15 09:00N 51°28' W 127°33'1 1.3
2018-Apr-15 08:30N 51°29' W 127°32'0 0.0
2018-Apr-15 08:00N 51°29' W 127°32'0 0.0
2018-Apr-15 07:30N 51°29' W 127°32'0 0.0
2018-Apr-15 07:00N 51°29' W 127°32'0 0.0
2018-Apr-15 06:29N 51°29' W 127°32'0 0.0
2018-Apr-15 06:00N 51°29' W 127°32'0 0.0
2018-Apr-15 05:30N 51°29' W 127°32'0 0.0
2018-Apr-15 04:59N 51°29' W 127°32'0 0.0
2018-Apr-15 04:30N 51°29' W 127°32'0 0.0
2018-Apr-15 04:00N 51°29' W 127°32'0 0.0
2018-Apr-15 03:30N 51°29' W 127°32'1 2.2
2018-Apr-15 03:00N 51°28' W 127°34'1 2.8
2018-Apr-15 02:30N 51°30' W 127°35'3 5.2
2018-Apr-15 02:00N 51°32' W 127°33'3 5.3
2018-Apr-15 01:30N 51°35' W 127°32'3 4.9
2018-Apr-15 00:58N 51°37' W 127°31'3 5.4
2018-Apr-15 00:30N 51°39' W 127°27'3 6.5
2018-Apr-15 00:00N 51°40' W 127°23'4 0.9
2018-Apr-14 19:25N 51°41' W 127°16'0 1.0
2018-Apr-14 18:59N 51°41' W 127°16'0 0.0
2018-Apr-14 18:30N 51°41' W 127°16'0 0.0
2018-Apr-14 18:00N 51°41' W 127°16'0 0.2
2018-Apr-14 17:30N 51°40' W 127°16'1 0.3
2018-Apr-14 13:26N 51°41' W 127°18'1 3.4
2018-Apr-14 13:00N 51°40' W 127°20'3 5.6
2018-Apr-14 12:30N 51°39' W 127°24'4 7.1
2018-Apr-14 12:00N 51°38' W 127°30'4 7.2
2018-Apr-14 11:30N 51°35' W 127°33'4 6.0
2018-Apr-14 10:55N 51°33' W 127°37'3 5.7
2018-Apr-14 10:27N 51°31' W 127°40'2 4.1
2018-Apr-14 10:00N 51°31' W 127°43'2 3.8
2018-Apr-14 09:30N 51°31' W 127°46'3 5.4
2018-Apr-14 09:00N 51°32' W 127°50'3 6.4
2018-Apr-14 08:30N 51°35' W 127°52'3 6.6
2018-Apr-14 08:00N 51°38' W 127°53'3 6.5
2018-Apr-14 07:30N 51°41' W 127°54'3 6.8
2018-Apr-14 07:00N 51°44' W 127°55'3 6.9
2018-Apr-14 06:30N 51°48' W 127°55'3 6.7
2018-Apr-14 06:00N 51°51' W 127°55'3 6.4
2018-Apr-14 05:30N 51°54' W 127°54'3 6.2
2018-Apr-14 05:00N 51°56' W 127°50'3 5.3
2018-Apr-14 04:30N 51°57' W 127°46'2 4.7
2018-Apr-14 04:00N 51°58' W 127°42'1 2.2
2018-Apr-14 03:28N 51°58' W 127°40'0 0.0
2018-Apr-14 02:30N 51°58' W 127°40'0 0.0
2018-Apr-14 01:56N 51°58' W 127°40'1 2.2
2018-Apr-14 01:30N 51°58' W 127°41'4 7.8
2018-Apr-14 00:59N 52°02' W 127°40'4 7.5
2018-Apr-14 00:29N 52°06' W 127°38'10 0.9
2018-Apr-13 13:34N 52°16' W 127°37'0 0.0
2018-Apr-12 22:40N 52°16' W 127°37'3 6.4
2018-Apr-12 22:13N 52°16' W 127°42'2 7.3
2018-Apr-12 22:00N 52°16' W 127°44'4 7.2
2018-Apr-12 21:30N 52°13' W 127°49'5 7.5
2018-Apr-12 20:50N 52°09' W 127°52'3 7.9
2018-Apr-12 20:30N 52°06' W 127°54'3 6.3
2018-Apr-12 20:00N 52°04' W 127°58'3 6.4
2018-Apr-12 19:30N 52°04' W 128°03'3 6.4
2018-Apr-12 19:00N 52°06' W 128°08'3 1.9
2018-Apr-12 17:12N 52°10' W 128°08'0 0.7
2018-Apr-12 16:44N 52°10' W 128°08'0 0.0
2018-Apr-12 16:23N 52°10' W 128°08'0 0.0
2018-Apr-12 15:59N 52°10' W 128°08'0 0.0
2018-Apr-12 15:30N 52°10' W 128°08'0 0.0
2018-Apr-12 14:50N 52°10' W 128°08'0 0.0
2018-Apr-12 14:30N 52°10' W 128°08'0 0.0
2018-Apr-12 14:00N 52°10' W 128°08'0 0.8
2018-Apr-12 13:30N 52°10' W 128°08'2 4.1
2018-Apr-12 12:56N 52°12' W 128°08'3 6.8
2018-Apr-12 12:30N 52°14' W 128°12'2 4.9
2018-Apr-12 12:00N 52°15' W 128°16'3 6.2
2018-Apr-12 11:30N 52°15' W 128°21'4 6.1
2018-Apr-12 10:54N 52°16' W 128°26'3 6.6
2018-Apr-12 10:28N 52°18' W 128°30'4 7.1
2018-Apr-12 09:58N 52°21' W 128°31'4 7.6
2018-Apr-12 09:29N 52°25' W 128°30'  

Dump ship's entire track history